Time;durP1;ratioP1;P1;durP2;ratioP2;P2;SDS_P1;SDS_P2;PMS_P1;PMS_P2;Temp;Humidity;BMP_temperature;BMP_pressure;BME280_temperature;BME280_humidity;BME280_pressure;Samples;Min_cycle;Max_cycle;Signal;HPM_P1;HPM_P2
2021/12/01 00:02:14;;;;;;;5.72;2.42;;;2.40;99.90;;;;;;5030884;28;20030;-49
2021/12/01 00:04:40;;;;;;;10.63;2.65;;;2.40;99.90;;;;;;5040494;28;20500;-50
2021/12/01 00:07:07;;;;;;;13.00;3.83;;;2.40;99.90;;;;;;5047626;28;20029;-52
2021/12/01 00:09:33;;;;;;;11.57;2.80;;;2.50;99.90;;;;;;5036663;28;20544;-50
2021/12/01 00:11:59;;;;;;;9.05;3.08;;;2.50;99.90;;;;;;5029213;28;20033;-48
2021/12/01 00:14:24;;;;;;;10.18;2.88;;;2.50;99.90;;;;;;5028004;28;20030;-48
2021/12/01 00:16:50;;;;;;;12.20;3.70;;;2.50;99.90;;;;;;5028146;28;20028;-52
2021/12/01 00:19:16;;;;;;;6.40;2.95;;;2.60;99.90;;;;;;5027843;28;20030;-52
2021/12/01 00:21:42;;;;;;;11.57;3.45;;;2.60;99.90;;;;;;5027937;28;20440;-50
2021/12/01 00:24:07;;;;;;;8.50;3.00;;;2.60;99.90;;;;;;5028051;28;20040;-49
2021/12/01 00:26:33;;;;;;;12.30;3.35;;;2.60;99.90;;;;;;5027264;28;20033;-54
2021/12/01 00:28:59;;;;;;;6.80;3.03;;;2.60;99.90;;;;;;5031687;28;20029;-51
2021/12/01 00:31:24;;;;;;;10.90;3.03;;;2.70;99.90;;;;;;5031991;28;20053;-51
2021/12/01 00:33:51;;;;;;;12.90;3.67;;;2.70;99.90;;;;;;5040828;28;20028;-48
2021/12/01 00:36:16;;;;;;;7.85;2.60;;;2.70;99.90;;;;;;5016929;28;20021;-56
2021/12/01 00:38:43;;;;;;;8.05;2.03;;;2.80;99.90;;;;;;5050156;28;20036;-50
2021/12/01 00:41:13;;;;;;;13.52;3.10;;;2.80;99.90;;;;;;5040960;28;20033;-53
2021/12/01 00:43:39;;;;;;;14.15;2.22;;;2.80;99.90;;;;;;5032192;28;20401;-54
2021/12/01 00:46:19;;;;;;;11.18;3.00;;;2.90;99.90;;;;;;5031550;28;20041;-50
2021/12/01 00:48:44;;;;;;;5.95;2.00;;;2.90;99.90;;;;;;5037286;28;20709;-54
2021/12/01 00:51:10;;;;;;;10.50;3.15;;;2.90;99.90;;;;;;5051032;28;20029;-49
2021/12/01 00:53:36;;;;;;;9.63;2.33;;;3.00;99.90;;;;;;5036485;28;20029;-49
2021/12/01 00:56:02;;;;;;;7.47;2.38;;;3.00;99.90;;;;;;5033374;28;20028;-49
2021/12/01 00:58:27;;;;;;;8.52;2.90;;;3.00;99.90;;;;;;5050425;28;20029;-49
2021/12/01 01:00:54;;;;;;;12.88;3.00;;;3.00;99.90;;;;;;5051018;28;20072;-54
2021/12/01 01:03:20;;;;;;;11.18;2.70;;;3.00;99.90;;;;;;5045573;28;20057;-50
2021/12/01 01:05:46;;;;;;;9.90;3.45;;;3.10;99.90;;;;;;5031292;28;20632;-49
2021/12/01 01:08:11;;;;;;;9.10;2.72;;;3.10;99.90;;;;;;5031039;28;20030;-51
2021/12/01 01:18:43;;;;;;;10.43;3.33;;;3.20;99.90;;;;;;5033915;28;20084;-49
2021/12/01 01:21:09;;;;;;;12.40;3.75;;;3.20;99.90;;;;;;5035821;28;20033;-49
2021/12/01 01:23:36;;;;;;;9.68;3.92;;;3.20;99.90;;;;;;5050765;28;20060;-49
2021/12/01 01:26:04;;;;;;;8.43;3.40;;;3.20;99.90;;;;;;5049287;28;20052;-48
2021/12/01 01:28:30;;;;;;;7.38;3.38;;;3.20;99.90;;;;;;5050167;28;20082;-54
2021/12/01 01:30:57;;;;;;;17.27;4.38;;;3.20;99.90;;;;;;5033812;28;20068;-56
2021/12/01 01:33:23;;;;;;;9.38;3.30;;;3.20;99.90;;;;;;5050488;28;20028;-51
2021/12/01 01:35:49;;;;;;;11.95;4.65;;;3.20;99.90;;;;;;5040746;28;20037;-50
2021/12/01 01:38:15;;;;;;;14.57;5.28;;;3.20;99.90;;;;;;5028722;28;20038;-50
2021/12/01 01:40:41;;;;;;;8.55;3.80;;;3.30;99.90;;;;;;5029869;28;20040;-49
2021/12/01 01:43:07;;;;;;;15.25;4.85;;;3.30;99.90;;;;;;5022204;28;20041;-51
2021/12/01 01:45:33;;;;;;;13.40;5.07;;;3.30;99.90;;;;;;5019610;28;20042;-48
2021/12/01 01:48:01;;;;;;;11.57;4.90;;;3.30;99.90;;;;;;5019455;28;20052;-47
2021/12/01 01:50:38;;;;;;;11.82;4.90;;;3.30;99.90;;;;;;5056635;28;20044;-51
2021/12/01 01:53:17;;;;;;;14.30;6.05;;;3.40;99.90;;;;;;5021564;28;20449;-48
2021/12/01 01:55:46;;;;;;;12.68;5.57;;;3.40;99.90;;;;;;5022928;28;20029;-54
2021/12/01 01:58:14;;;;;;;13.95;7.22;;;3.40;99.90;;;;;;5008959;28;20034;-50
2021/12/01 02:00:52;;;;;;;13.32;6.53;;;3.40;99.90;;;;;;5008395;28;20030;-47
2021/12/01 02:03:23;;;;;;;17.27;6.75;;;3.40;99.90;;;;;;5015641;28;20051;-49
2021/12/01 02:05:50;;;;;;;14.40;7.53;;;3.40;99.90;;;;;;5029591;28;20033;-55
2021/12/01 02:08:18;;;;;;;15.80;8.43;;;3.50;99.90;;;;;;5031075;28;20372;-49
2021/12/01 02:10:51;;;;;;;13.30;6.43;;;3.50;99.90;;;;;;5049803;28;20531;-52
2021/12/01 02:13:20;;;;;;;12.00;6.88;;;3.50;99.90;;;;;;5049379;28;20036;-47
2021/12/01 02:15:48;;;;;;;10.45;6.43;;;3.50;99.90;;;;;;5049979;28;20013;-50
2021/12/01 02:18:14;;;;;;;12.65;6.60;;;3.60;99.90;;;;;;5047857;28;20031;-49
2021/12/01 02:20:56;;;;;;;16.25;7.78;;;3.60;99.90;;;;;;5041736;28;20112;-48
2021/12/01 02:23:23;;;;;;;11.50;6.68;;;3.50;99.90;;;;;;5030110;28;20033;-49
2021/12/01 02:25:48;;;;;;;12.98;7.15;;;3.60;99.90;;;;;;5029837;28;20026;-47
2021/12/01 02:28:14;;;;;;;13.23;7.07;;;3.60;99.90;;;;;;5029671;28;20029;-47
2021/12/01 02:30:40;;;;;;;15.77;7.07;;;3.60;99.90;;;;;;5029884;28;20456;-52
2021/12/01 02:33:05;;;;;;;10.52;6.25;;;3.70;99.90;;;;;;5029788;28;20033;-47
2021/12/01 02:35:31;;;;;;;11.40;7.35;;;3.70;99.90;;;;;;5029881;28;20037;-47
2021/12/01 02:37:57;;;;;;;12.90;6.97;;;3.70;99.90;;;;;;5028073;28;20083;-46
2021/12/01 02:40:22;;;;;;;12.48;6.68;;;3.70;99.90;;;;;;5046450;28;20461;-49
2021/12/01 02:42:48;;;;;;;11.98;6.20;;;3.80;99.90;;;;;;5049437;28;20501;-50
2021/12/01 02:45:13;;;;;;;11.55;6.43;;;3.80;99.90;;;;;;5047424;28;20029;-46
2021/12/01 02:47:39;;;;;;;9.15;6.20;;;3.80;99.90;;;;;;5044805;28;20485;-48
2021/12/01 02:50:05;;;;;;;9.35;5.72;;;3.80;99.90;;;;;;5028433;28;20055;-48
2021/12/01 02:52:35;;;;;;;8.20;5.03;;;3.90;99.90;;;;;;5029665;28;20537;-48
2021/12/01 02:55:07;;;;;;;11.05;4.82;;;3.90;99.90;;;;;;5039704;28;20619;-50
2021/12/01 02:57:52;;;;;;;10.60;5.15;;;3.90;99.90;;;;;;5045718;28;20104;-50
2021/12/01 03:00:20;;;;;;;9.18;5.00;;;3.90;99.90;;;;;;5048883;28;20036;-47
2021/12/01 03:02:46;;;;;;;9.20;4.68;;;3.90;99.90;;;;;;5047032;28;20567;-47
2021/12/01 03:05:14;;;;;;;9.10;4.75;;;4.00;99.90;;;;;;5031568;28;20038;-47
2021/12/01 03:07:42;;;;;;;5.70;4.03;;;4.00;99.90;;;;;;5017446;28;20038;-47
2021/12/01 03:10:07;;;;;;;5.70;3.80;;;4.00;99.90;;;;;;5028156;28;20045;-46
2021/12/01 03:12:36;;;;;;;9.60;3.85;;;4.00;99.90;;;;;;5046335;28;20507;-49
2021/12/01 03:15:02;;;;;;;5.45;3.20;;;4.00;99.90;;;;;;5048857;28;20029;-47
2021/12/01 03:17:30;;;;;;;5.65;3.33;;;4.10;99.90;;;;;;5046074;28;20032;-46
2021/12/01 03:19:56;;;;;;;3.67;2.72;;;4.10;99.90;;;;;;5030427;28;20477;-48
2021/12/01 03:22:22;;;;;;;7.88;3.38;;;4.10;99.90;;;;;;5047708;28;20063;-49
2021/12/01 03:24:48;;;;;;;3.92;2.97;;;4.10;99.90;;;;;;5048674;28;20041;-50
2021/12/01 03:27:14;;;;;;;4.82;2.38;;;4.10;99.90;;;;;;5028388;28;20041;-46
2021/12/01 03:29:40;;;;;;;3.63;2.35;;;4.10;99.90;;;;;;5028879;28;20509;-49
2021/12/01 03:32:07;;;;;;;3.30;2.08;;;4.20;99.90;;;;;;5031580;28;20099;-46
2021/12/01 03:34:34;;;;;;;4.95;1.98;;;4.20;99.90;;;;;;5048894;28;20079;-45
2021/12/01 03:37:00;;;;;;;3.80;2.10;;;4.20;99.90;;;;;;5041046;28;20018;-46
2021/12/01 03:39:26;;;;;;;3.00;1.83;;;4.30;99.90;;;;;;5028599;28;20120;-47
2021/12/01 03:41:52;;;;;;;2.08;1.63;;;4.30;99.90;;;;;;5044799;28;20115;-47
2021/12/01 03:44:17;;;;;;;2.33;1.77;;;4.30;99.90;;;;;;5046832;28;20041;-48
2021/12/01 03:46:43;;;;;;;2.67;1.90;;;4.30;99.90;;;;;;5029147;28;20543;-46
2021/12/01 03:49:09;;;;;;;3.05;1.80;;;4.30;99.90;;;;;;5027561;28;20112;-46
2021/12/01 03:51:35;;;;;;;3.35;1.70;;;4.30;99.90;;;;;;5042306;28;20484;-46
2021/12/01 03:54:01;;;;;;;1.83;1.48;;;4.30;99.90;;;;;;5047526;28;20024;-51
2021/12/01 03:56:27;;;;;;;2.70;1.35;;;4.40;99.90;;;;;;5046092;28;20032;-53
2021/12/01 03:58:53;;;;;;;2.38;2.03;;;4.40;99.90;;;;;;5047619;28;20109;-54
2021/12/01 04:01:19;;;;;;;1.45;1.08;;;4.40;99.90;;;;;;5046675;28;20532;-49
2021/12/01 04:03:45;;;;;;;1.80;1.42;;;4.40;99.90;;;;;;5038563;28;20056;-49
2021/12/01 04:06:11;;;;;;;1.67;1.33;;;4.40;99.90;;;;;;5027799;28;20514;-53
2021/12/01 04:08:37;;;;;;;1.52;1.30;;;4.40;99.90;;;;;;5027229;28;20034;-46
2021/12/01 04:11:03;;;;;;;1.92;1.45;;;4.40;99.90;;;;;;5032651;28;20025;-47
2021/12/01 04:13:29;;;;;;;1.80;1.45;;;4.50;99.90;;;;;;5034534;28;20040;-50
2021/12/01 04:15:54;;;;;;;1.63;1.42;;;4.50;99.90;;;;;;5027293;28;20041;-47
2021/12/01 04:18:20;;;;;;;1.60;1.50;;;4.50;99.90;;;;;;5027609;28;20030;-49
2021/12/01 04:20:46;;;;;;;2.75;1.55;;;4.50;99.90;;;;;;5036614;28;20552;-47
2021/12/01 04:23:11;;;;;;;1.95;1.42;;;4.50;99.90;;;;;;5044879;28;20127;-50
2021/12/01 04:25:37;;;;;;;2.20;1.38;;;4.60;99.90;;;;;;5031855;28;20030;-51
2021/12/01 04:28:03;;;;;;;2.00;1.40;;;4.60;99.90;;;;;;5046655;28;20036;-47
2021/12/01 04:30:29;;;;;;;1.33;1.23;;;4.60;99.90;;;;;;5047140;28;20397;-49
2021/12/01 04:32:54;;;;;;;1.38;1.20;;;4.60;99.90;;;;;;5047160;28;20120;-49
2021/12/01 04:35:23;;;;;;;2.10;1.23;;;4.60;99.90;;;;;;5045188;28;20083;-48
2021/12/01 04:37:49;;;;;;;2.13;1.30;;;4.60;99.90;;;;;;5044720;28;20032;-57
2021/12/01 04:40:16;;;;;;;4.40;1.27;;;4.60;99.90;;;;;;5043358;28;20037;-48
2021/12/01 04:42:43;;;;;;;1.40;1.17;;;4.60;99.90;;;;;;5033944;28;20140;-55
2021/12/01 04:45:14;;;;;;;1.60;1.20;;;4.60;99.90;;;;;;5007471;28;1081001;-48
2021/12/01 04:47:54;;;;;;;3.03;1.67;;;4.60;99.90;;;;;;5047364;28;20163;-47
2021/12/01 04:50:23;;;;;;;1.90;1.63;;;4.60;99.90;;;;;;5035865;28;20148;-47
2021/12/01 04:52:49;;;;;;;2.60;2.03;;;4.70;99.90;;;;;;5041313;28;20025;-48
2021/12/01 04:55:15;;;;;;;1.90;1.38;;;4.60;99.90;;;;;;5035108;28;20076;-48
2021/12/01 04:57:43;;;;;;;1.65;1.55;;;4.60;99.90;;;;;;5047200;28;20515;-51
2021/12/01 05:00:13;;;;;;;2.53;1.63;;;4.70;99.90;;;;;;5035678;28;20679;-48
2021/12/01 05:02:39;;;;;;;1.90;1.50;;;4.70;99.90;;;;;;5028886;28;20021;-48
2021/12/01 05:05:05;;;;;;;1.40;1.30;;;4.70;99.90;;;;;;5045577;28;20033;-49
2021/12/01 05:07:32;;;;;;;2.15;1.30;;;4.80;99.90;;;;;;5046935;28;20507;-52
2021/12/01 05:09:57;;;;;;;1.20;1.10;;;4.80;99.90;;;;;;5038182;28;20041;-49
2021/12/01 05:12:23;;;;;;;0.93;0.85;;;4.80;99.90;;;;;;5028094;28;20037;-50
2021/12/01 05:14:49;;;;;;;0.93;0.90;;;4.80;99.90;;;;;;5032680;28;20034;-55
2021/12/01 05:17:14;;;;;;;0.80;0.80;;;4.80;99.90;;;;;;5031087;28;20022;-47
2021/12/01 05:19:40;;;;;;;1.92;1.48;;;4.80;99.90;;;;;;5036888;28;20037;-49
2021/12/01 05:22:06;;;;;;;2.45;1.50;;;4.90;99.90;;;;;;5050247;28;20033;-52
2021/12/01 05:24:32;;;;;;;1.35;1.23;;;4.90;99.90;;;;;;5050486;28;20033;-48
2021/12/01 05:26:58;;;;;;;1.33;1.23;;;4.90;99.90;;;;;;5050817;28;20044;-48
2021/12/01 05:29:24;;;;;;;1.88;1.52;;;4.90;99.90;;;;;;5047240;28;20025;-46
2021/12/01 05:31:52;;;;;;;1.00;0.90;;;4.90;99.90;;;;;;5030641;28;20063;-49
2021/12/01 05:34:17;;;;;;;1.45;1.30;;;4.90;99.90;;;;;;5031131;28;20026;-53
2021/12/01 05:36:43;;;;;;;1.40;1.30;;;5.00;99.90;;;;;;5036743;28;20059;-48
2021/12/01 05:39:08;;;;;;;1.48;1.38;;;5.00;99.90;;;;;;5048764;28;20108;-47
2021/12/01 05:41:34;;;;;;;1.50;1.40;;;5.00;99.90;;;;;;5045097;28;20111;-48
2021/12/01 05:44:00;;;;;;;1.77;1.67;;;5.00;99.90;;;;;;5030384;28;20061;-51
2021/12/01 05:46:27;;;;;;;2.25;1.55;;;5.00;99.90;;;;;;5031680;28;20034;-53
2021/12/01 05:48:53;;;;;;;1.85;1.73;;;5.10;99.90;;;;;;5030746;28;20049;-52
2021/12/01 05:51:20;;;;;;;1.88;1.70;;;5.10;99.90;;;;;;5047005;28;20549;-48
2021/12/01 05:53:47;;;;;;;2.03;1.80;;;5.20;99.90;;;;;;5034555;28;20506;-52
2021/12/01 05:56:13;;;;;;;2.05;1.70;;;5.20;99.90;;;;;;5041677;28;20021;-49
2021/12/01 05:58:38;;;;;;;2.78;2.38;;;5.20;99.90;;;;;;5049984;28;20431;-47
2021/12/01 06:01:04;;;;;;;2.22;2.03;;;5.20;99.90;;;;;;5030980;28;20040;-53
2021/12/01 06:03:30;;;;;;;2.40;2.20;;;5.30;99.90;;;;;;5036817;28;20455;-52
2021/12/01 06:05:56;;;;;;;3.05;2.58;;;5.30;99.90;;;;;;5048400;28;20504;-51
2021/12/01 06:08:22;;;;;;;2.65;2.42;;;5.30;99.90;;;;;;5049203;28;20032;-50
2021/12/01 06:10:48;;;;;;;2.95;2.65;;;5.40;99.90;;;;;;5034712;28;20413;-52
2021/12/01 06:13:19;;;;;;;5.30;3.20;;;5.40;99.90;;;;;;5030360;28;20032;-48
2021/12/01 06:15:45;;;;;;;3.85;3.47;;;5.40;99.90;;;;;;5031403;28;20146;-50
2021/12/01 06:18:11;;;;;;;3.63;3.33;;;5.40;99.90;;;;;;5013973;28;20127;-53
2021/12/01 06:20:37;;;;;;;4.50;4.05;;;5.40;99.90;;;;;;5045257;28;20045;-55
2021/12/01 06:23:03;;;;;;;4.80;4.35;;;5.50;99.90;;;;;;5026196;28;20026;-54
2021/12/01 06:25:29;;;;;;;4.55;4.15;;;5.50;99.90;;;;;;5027998;28;20171;-56
2021/12/01 06:27:55;;;;;;;4.72;4.13;;;5.60;99.90;;;;;;5043198;28;20029;-49
2021/12/01 06:30:22;;;;;;;5.20;4.68;;;5.60;99.90;;;;;;5038524;28;20029;-48
2021/12/01 06:32:49;;;;;;;5.15;4.65;;;5.70;99.90;;;;;;5029644;28;20033;-51
2021/12/01 06:35:15;;;;;;;6.40;5.25;;;5.80;99.90;;;;;;5030039;28;20129;-47
2021/12/01 06:37:40;;;;;;;5.72;5.03;;;5.90;99.90;;;;;;5045161;28;20450;-49
2021/12/01 06:40:07;;;;;;;6.35;5.68;;;5.90;99.90;;;;;;5042320;28;20029;-48
2021/12/01 06:42:35;;;;;;;8.88;5.32;;;6.00;99.90;;;;;;5029835;28;20033;-49
2021/12/01 06:45:02;;;;;;;5.90;5.07;;;6.10;99.90;;;;;;5030281;28;20040;-51
2021/12/01 06:47:28;;;;;;;8.25;5.57;;;6.20;99.90;;;;;;5036900;28;20052;-54
2021/12/01 06:49:53;;;;;;;7.97;5.55;;;6.40;99.90;;;;;;5047741;28;20498;-51
2021/12/01 06:52:19;;;;;;;6.32;4.93;;;6.50;99.90;;;;;;5029313;28;20025;-51
2021/12/01 06:54:44;;;;;;;6.43;4.85;;;6.60;99.90;;;;;;5029517;28;20013;-49
2021/12/01 06:57:10;;;;;;;5.55;5.00;;;6.80;99.90;;;;;;5040348;28;20488;-51
2021/12/01 06:59:36;;;;;;;6.03;4.38;;;7.00;99.90;;;;;;5048529;28;20036;-51
2021/12/01 07:02:01;;;;;;;7.07;4.85;;;7.10;99.90;;;;;;5048840;28;20526;-48
2021/12/01 07:04:27;;;;;;;6.25;4.40;;;7.20;99.90;;;;;;5041049;28;20033;-47
2021/12/01 07:06:52;;;;;;;8.55;4.15;;;7.30;99.90;;;;;;5036785;28;20052;-49
2021/12/01 07:09:20;;;;;;;5.68;3.85;;;7.30;99.90;;;;;;5048753;28;20657;-48
2021/12/01 07:11:46;;;;;;;5.15;3.75;;;7.40;99.90;;;;;;5048666;28;20017;-49
2021/12/01 07:14:12;;;;;;;4.90;3.85;;;7.50;99.90;;;;;;5042678;28;20017;-48
2021/12/01 07:16:38;;;;;;;4.32;3.83;;;7.60;99.90;;;;;;5030421;28;20045;-51
2021/12/01 07:19:06;;;;;;;5.32;3.90;;;7.60;99.90;;;;;;5028816;28;20400;-49
2021/12/01 07:21:31;;;;;;;5.32;3.63;;;7.60;99.90;;;;;;5028619;28;20048;-49
2021/12/01 07:23:57;;;;;;;3.97;3.28;;;7.60;99.90;;;;;;5031074;28;20421;-50
2021/12/01 07:26:22;;;;;;;4.70;3.08;;;7.60;99.90;;;;;;5051902;28;20056;-49
2021/12/01 07:28:48;;;;;;;5.07;3.35;;;7.60;99.90;;;;;;5045367;28;20036;-52
2021/12/01 07:31:13;;;;;;;4.63;3.55;;;7.70;99.90;;;;;;5029249;28;20055;-49
2021/12/01 07:33:39;;;;;;;4.35;2.95;;;7.70;99.90;;;;;;5033586;28;20116;-55
2021/12/01 07:36:05;;;;;;;4.97;3.20;;;7.70;99.90;;;;;;5032860;28;20775;-49
2021/12/01 07:38:31;;;;;;;5.25;3.38;;;7.70;99.90;;;;;;5048325;28;20021;-50
2021/12/01 07:40:56;;;;;;;4.20;2.92;;;7.70;99.90;;;;;;5048216;28;20110;-47
2021/12/01 07:43:22;;;;;;;3.97;3.25;;;7.70;99.90;;;;;;5048165;28;20516;-51
2021/12/01 07:45:48;;;;;;;4.68;3.50;;;7.70;99.90;;;;;;5031962;28;20044;-54
2021/12/01 07:48:14;;;;;;;3.83;3.40;;;7.70;99.90;;;;;;5028032;28;20528;-51
2021/12/01 07:50:40;;;;;;;5.78;3.50;;;7.70;99.90;;;;;;5028567;28;20045;-48
2021/12/01 07:53:06;;;;;;;5.50;4.13;;;7.70;99.90;;;;;;5039925;28;20041;-53
2021/12/01 07:55:31;;;;;;;3.88;3.33;;;7.70;99.90;;;;;;5044153;28;20033;-48
2021/12/01 07:57:57;;;;;;;4.20;3.75;;;7.70;99.90;;;;;;5047983;28;20111;-48
2021/12/01 08:00:22;;;;;;;4.13;3.70;;;7.70;99.90;;;;;;5044864;28;20055;-49
2021/12/01 08:02:48;;;;;;;4.82;3.70;;;7.70;99.90;;;;;;5038672;28;20378;-50
2021/12/01 08:05:13;;;;;;;4.25;3.85;;;7.70;99.90;;;;;;5029578;28;20412;-48
2021/12/01 08:07:40;;;;;;;4.65;3.97;;;7.70;99.90;;;;;;5046374;28;20112;-49
2021/12/01 08:10:07;;;;;;;4.65;4.15;;;7.70;99.90;;;;;;5048113;28;20548;-48
2021/12/01 08:12:34;;;;;;;4.53;4.13;;;7.70;99.90;;;;;;5040762;28;20056;-52
2021/12/01 08:15:01;;;;;;;4.97;4.47;;;7.70;99.90;;;;;;5028356;28;20564;-49
2021/12/01 08:17:27;;;;;;;4.50;4.10;;;7.70;99.90;;;;;;5029562;28;20022;-49
2021/12/01 08:19:52;;;;;;;5.03;4.53;;;7.70;99.90;;;;;;5028248;28;20527;-54
2021/12/01 08:22:18;;;;;;;4.93;4.20;;;7.70;99.90;;;;;;5028686;28;20042;-52
2021/12/01 08:24:44;;;;;;;4.82;4.40;;;7.70;99.90;;;;;;5028269;28;20029;-50
2021/12/01 08:27:09;;;;;;;4.32;3.92;;;7.70;99.90;;;;;;5029313;28;20049;-52
2021/12/01 08:29:35;;;;;;;4.95;4.45;;;7.60;99.90;;;;;;5027699;28;20029;-53
2021/12/01 08:32:00;;;;;;;5.18;4.43;;;7.70;99.90;;;;;;5035110;28;20086;-47
2021/12/01 08:34:26;;;;;;;5.20;4.70;;;7.70;99.90;;;;;;5047656;28;20025;-53
2021/12/01 08:36:51;;;;;;;5.22;4.72;;;7.70;99.90;;;;;;5039890;28;20040;-52
2021/12/01 08:39:17;;;;;;;4.95;4.55;;;7.70;99.90;;;;;;5027859;28;20022;-53
2021/12/01 08:41:43;;;;;;;5.38;4.88;;;7.60;99.90;;;;;;5030307;28;20021;-57
2021/12/01 08:44:10;;;;;;;5.00;4.57;;;7.60;99.90;;;;;;5047130;28;20021;-51
2021/12/01 08:46:35;;;;;;;6.80;5.10;;;7.70;99.90;;;;;;5047522;28;20036;-55
2021/12/01 08:49:01;;;;;;;5.70;5.20;;;7.60;99.90;;;;;;5048411;28;20091;-56
2021/12/01 08:51:27;;;;;;;4.47;4.07;;;7.60;99.90;;;;;;5036519;28;20429;-55
2021/12/01 08:53:53;;;;;;;5.20;4.70;;;7.60;99.90;;;;;;5031767;28;20018;-53
2021/12/01 08:56:19;;;;;;;5.38;4.88;;;7.70;99.90;;;;;;5031758;28;20620;-51
2021/12/01 08:58:44;;;;;;;5.07;4.60;;;7.60;99.90;;;;;;5031505;28;20060;-53
2021/12/01 09:01:10;;;;;;;4.75;4.35;;;7.60;99.90;;;;;;5031055;28;20116;-54
2021/12/01 09:03:38;;;;;;;4.72;4.25;;;7.60;99.90;;;;;;5031538;28;20112;-53
2021/12/01 09:06:04;;;;;;;4.70;4.22;;;7.60;99.90;;;;;;5031177;28;20044;-51
2021/12/01 09:08:30;;;;;;;4.13;3.83;;;7.60;99.90;;;;;;5030688;28;20509;-53
2021/12/01 09:10:58;;;;;;;5.05;3.72;;;7.60;99.90;;;;;;5030986;28;20104;-56
2021/12/01 09:13:27;;;;;;;4.53;4.13;;;7.60;99.90;;;;;;5031183;28;20221;-52
2021/12/01 09:15:53;;;;;;;4.10;3.70;;;7.60;99.90;;;;;;5031248;28;20478;-54
2021/12/01 09:18:21;;;;;;;5.13;3.50;;;7.60;99.90;;;;;;5030992;28;20026;-50
2021/12/01 09:20:47;;;;;;;4.25;3.95;;;7.60;99.90;;;;;;5031517;28;20049;-54
2021/12/01 09:23:13;;;;;;;4.47;4.07;;;7.60;99.90;;;;;;5031312;28;20072;-51
2021/12/01 09:25:39;;;;;;;4.07;3.78;;;7.60;99.90;;;;;;5033453;28;20044;-52
2021/12/01 09:28:05;;;;;;;4.22;3.22;;;7.60;99.90;;;;;;5050807;28;20523;-56
2021/12/01 09:30:30;;;;;;;4.20;3.80;;;7.60;99.90;;;;;;5050786;28;20025;-50
2021/12/01 09:32:56;;;;;;;4.82;3.88;;;7.60;99.90;;;;;;5050907;28;20021;-49
2021/12/01 09:35:21;;;;;;;3.85;3.55;;;7.60;99.90;;;;;;5035401;28;20512;-54
2021/12/01 09:37:47;;;;;;;3.40;3.13;;;7.60;99.90;;;;;;5030713;28;20075;-56
2021/12/01 09:40:17;;;;;;;3.83;3.28;;;7.60;99.90;;;;;;5029615;28;20057;-55
2021/12/01 09:42:52;;;;;;;3.60;3.30;;;7.60;99.90;;;;;;5030642;28;20026;-50
2021/12/01 09:45:20;;;;;;;3.22;2.95;;;7.60;99.90;;;;;;5044730;28;20040;-52
2021/12/01 09:47:46;;;;;;;3.15;2.95;;;7.50;99.90;;;;;;5050494;28;20025;-48
2021/12/01 09:50:12;;;;;;;3.13;2.92;;;7.50;99.90;;;;;;5048640;28;20029;-54
2021/12/01 09:52:38;;;;;;;4.10;3.70;;;7.60;99.90;;;;;;5048993;28;20029;-51
2021/12/01 09:55:06;;;;;;;3.60;3.30;;;7.50;99.90;;;;;;5047428;28;20040;-48
2021/12/01 09:57:32;;;;;;;4.28;3.90;;;7.50;99.90;;;;;;5049990;28;20032;-53
2021/12/01 09:59:58;;;;;;;3.50;3.20;;;7.50;99.90;;;;;;5047001;28;20041;-51
2021/12/01 10:02:25;;;;;;;3.70;3.42;;;7.50;99.90;;;;;;5050481;28;20104;-51
2021/12/01 10:04:51;;;;;;;5.97;3.67;;;7.50;99.90;;;;;;5049400;28;20024;-50
2021/12/01 10:07:20;;;;;;;3.75;3.42;;;7.50;99.90;;;;;;5050487;28;20025;-50
2021/12/01 10:09:51;;;;;;;3.38;3.08;;;7.50;99.90;;;;;;5046647;28;20025;-50
2021/12/01 10:12:17;;;;;;;3.28;2.97;;;7.60;99.90;;;;;;5050282;28;20021;-52
2021/12/01 10:14:48;;;;;;;3.40;3.10;;;7.60;99.90;;;;;;5048364;28;20040;-49
2021/12/01 10:17:15;;;;;;;3.22;2.92;;;7.60;99.90;;;;;;5049836;28;20067;-49
2021/12/01 10:19:41;;;;;;;3.40;3.08;;;7.60;99.90;;;;;;5033763;28;20029;-54
2021/12/01 10:22:10;;;;;;;3.20;3.00;;;7.60;99.90;;;;;;5031320;28;20021;-53
2021/12/01 10:24:38;;;;;;;5.97;2.55;;;7.60;99.90;;;;;;5033405;28;20036;-49
2021/12/01 10:27:12;;;;;;;6.38;3.55;;;7.70;99.90;;;;;;5043410;28;20029;-51
2021/12/01 10:29:49;;;;;;;3.40;2.60;;;7.70;99.90;;;;;;5049406;28;20385;-50
2021/12/01 10:32:18;;;;;;;2.88;2.67;;;7.70;99.90;;;;;;5033220;28;20030;-49
2021/12/01 10:34:52;;;;;;;2.55;2.35;;;7.60;99.90;;;;;;5029867;28;20025;-49
2021/12/01 10:37:28;;;;;;;3.58;2.70;;;7.60;99.90;;;;;;5030019;28;20088;-50
2021/12/01 10:40:17;;;;;;;5.00;2.20;;;7.70;99.90;;;;;;5029735;28;20033;-48
2021/12/01 10:43:02;;;;;;;2.92;2.67;;;7.70;99.90;;;;;;5029615;28;20045;-54
2021/12/01 10:45:38;;;;;;;2.40;2.20;;;7.70;99.90;;;;;;5029370;28;20044;-52
2021/12/01 10:48:06;;;;;;;2.03;1.93;;;7.70;99.90;;;;;;5029762;28;20029;-49
2021/12/01 10:50:35;;;;;;;7.65;2.50;;;7.70;99.90;;;;;;5037828;28;20382;-50
2021/12/01 10:53:19;;;;;;;2.05;1.95;;;7.70;99.90;;;;;;5032713;28;20079;-48
2021/12/01 10:55:56;;;;;;;2.45;2.17;;;7.70;99.90;;;;;;5015828;28;20030;-48
2021/12/01 10:58:29;;;;;;;4.25;2.30;;;7.70;99.90;;;;;;5029369;28;20052;-51
2021/12/01 11:00:55;;;;;;;1.88;1.77;;;7.70;99.90;;;;;;5027810;28;20031;-48
2021/12/01 11:03:27;;;;;;;2.42;2.25;;;7.70;99.90;;;;;;5029546;28;20029;-50
2021/12/01 11:05:55;;;;;;;1.98;1.88;;;7.70;99.90;;;;;;5028839;28;20026;-50
2021/12/01 11:08:22;;;;;;;2.10;1.90;;;7.80;99.90;;;;;;5040523;28;20485;-48
2021/12/01 11:10:58;;;;;;;2.33;2.13;;;7.80;99.90;;;;;;5030683;28;20155;-54
2021/12/01 11:13:25;;;;;;;2.38;2.17;;;7.80;99.90;;;;;;5035689;28;20021;-51
2021/12/01 11:15:54;;;;;;;2.45;2.25;;;7.80;99.90;;;;;;5044745;28;20115;-55
2021/12/01 11:18:28;;;;;;;2.20;2.10;;;7.80;99.90;;;;;;5047096;28;20374;-53
2021/12/01 11:20:55;;;;;;;2.15;2.05;;;7.80;99.90;;;;;;5049507;28;20013;-52
2021/12/01 11:23:24;;;;;;;2.10;2.00;;;7.80;99.90;;;;;;5048742;28;20017;-56
2021/12/01 11:26:06;;;;;;;2.30;2.20;;;7.80;99.90;;;;;;5049174;28;20467;-56
2021/12/01 11:28:34;;;;;;;2.63;2.42;;;7.80;99.90;;;;;;5048974;28;20025;-53
2021/12/01 11:31:03;;;;;;;2.30;2.08;;;7.80;99.90;;;;;;5048855;28;20017;-51
2021/12/01 11:33:30;;;;;;;2.70;2.50;;;7.80;99.90;;;;;;5034888;28;20393;-53
2021/12/01 11:36:00;;;;;;;2.42;2.25;;;7.80;99.90;;;;;;5029295;28;20022;-54
2021/12/01 11:38:26;;;;;;;3.47;2.40;;;7.90;99.90;;;;;;5048496;28;20033;-53
2021/12/01 11:40:52;;;;;;;2.70;2.50;;;7.90;99.90;;;;;;5030292;28;20021;-49
2021/12/01 11:43:21;;;;;;;2.63;2.10;;;7.90;99.90;;;;;;5028887;28;20033;-55
2021/12/01 11:45:47;;;;;;;2.60;2.40;;;8.00;99.90;;;;;;5028809;28;20033;-53
2021/12/01 11:48:20;;;;;;;2.13;1.92;;;8.00;99.90;;;;;;5029989;28;20052;-53
2021/12/01 11:51:07;;;;;;;1.98;1.80;;;8.00;99.90;;;;;;5029076;28;20030;-50
2021/12/01 11:53:37;;;;;;;1.85;1.75;;;8.00;99.90;;;;;;5029164;28;20040;-55
2021/12/01 11:56:12;;;;;;;2.05;1.85;;;7.90;99.90;;;;;;5028656;28;20223;-56
2021/12/01 11:58:40;;;;;;;2.05;1.83;;;7.90;99.90;;;;;;5028566;28;20037;-49
2021/12/01 12:01:21;;;;;;;1.77;1.67;;;7.90;99.90;;;;;;5030891;28;20155;-55
2021/12/01 12:03:53;;;;;;;1.75;1.65;;;8.00;99.90;;;;;;5030273;28;20379;-53
2021/12/01 12:06:26;;;;;;;2.70;1.70;;;8.00;99.90;;;;;;5028829;28;20116;-52
2021/12/01 12:09:01;;;;;;;1.60;1.50;;;8.00;99.90;;;;;;5026824;28;20128;-55
2021/12/01 12:11:34;;;;;;;1.67;1.58;;;8.10;99.90;;;;;;5028162;28;20474;-52
2021/12/01 12:14:01;;;;;;;1.95;1.25;;;8.10;99.90;;;;;;5028465;28;20044;-51
2021/12/01 12:16:27;;;;;;;2.22;1.60;;;8.00;99.90;;;;;;5029035;28;20029;-54
2021/12/01 12:18:53;;;;;;;1.70;1.60;;;8.10;99.90;;;;;;5028094;28;20040;-51
2021/12/01 12:21:46;;;;;;;1.40;1.30;;;8.10;99.90;;;;;;5027937;28;20026;-51
2021/12/01 12:24:19;;;;;;;1.80;1.67;;;8.10;99.90;;;;;;5031665;28;20040;-53
2021/12/01 12:26:51;;;;;;;2.78;1.40;;;8.20;99.90;;;;;;5033021;28;20033;-52
2021/12/01 12:29:26;;;;;;;1.38;1.27;;;8.20;99.90;;;;;;5032216;28;20370;-50
2021/12/01 12:32:13;;;;;;;1.40;1.30;;;8.30;99.90;;;;;;5013580;28;20034;-53
2021/12/01 12:34:53;;;;;;;1.25;1.15;;;8.30;99.90;;;;;;5051672;28;20032;-52
2021/12/01 12:37:25;;;;;;;1.45;1.33;;;8.40;99.90;;;;;;5012747;28;20489;-50
2021/12/01 12:39:52;;;;;;;1.20;0.90;;;8.40;99.90;;;;;;5013172;28;20034;-52
2021/12/01 12:42:19;;;;;;;0.98;0.93;;;8.30;99.90;;;;;;5033015;28;20025;-51
2021/12/01 12:44:50;;;;;;;1.08;0.90;;;8.30;99.90;;;;;;5031801;28;20034;-54
2021/12/01 12:47:26;;;;;;;1.50;1.20;;;8.30;99.90;;;;;;5031843;28;20033;-49
2021/12/01 12:49:59;;;;;;;1.63;1.25;;;8.30;99.90;;;;;;5029554;28;20531;-52
2021/12/01 12:52:25;;;;;;;1.45;1.35;;;8.30;99.90;;;;;;5041141;28;20021;-55
2021/12/01 12:54:58;;;;;;;1.23;1.15;;;8.20;99.90;;;;;;5037315;28;20053;-52
2021/12/01 12:57:26;;;;;;;1.45;1.35;;;8.20;99.90;;;;;;5038794;28;20440;-53
2021/12/01 13:00:16;;;;;;;2.25;1.48;;;8.20;99.90;;;;;;5037263;28;20041;-49
2021/12/01 13:02:42;;;;;;;4.78;2.20;;;8.30;99.90;;;;;;5039297;28;20037;-47
2021/12/01 13:05:08;;;;;;;2.75;1.83;;;8.30;99.90;;;;;;5031526;28;20045;-51
2021/12/01 13:07:48;;;;;;;10.80;5.68;;;8.30;99.90;;;;;;5031615;28;20041;-54